ADDS METAR Data INFO
IDs: Format: Raw Decoded Include TAF

Data at: 1537 UTC 25 Feb 2018

KMAE 251453Z AUTO 12004KT 7SM CLR 00/M01 A3034 RMK AO2 SLP276 T00001011 53016
KMAE 251353Z AUTO 04004KT 8SM CLR 02/00 A3033 RMK AO2 SLP269 T00170000
KMAE 251253Z AUTO 00000KT 10SM CLR 02/01 A3031 RMK AO2 SLP264 T00220006
KMAE 251153Z AUTO 32003KT 10SM CLR 03/02 A3030 RMK AO2 SLP259 T00330017 10078 20017 53002
KMAE 251053Z AUTO 26005KT 10SM CLR 02/01 A3029 RMK AO2 SLP256 T00220011
KMAE 250953Z AUTO 27006KT 10SM CLR 03/01 A3029 RMK AO2 SLP257 T00280011
KMAE 250853Z AUTO 33005KT 10SM CLR 06/01 A3029 RMK AO2 SLP257 T00560011 50003
KMAE 250753Z AUTO 00000KT 10SM CLR 06/00 A3029 RMK AO2 SLP258 T00560000 401561022
KMAE 250653Z AUTO 32003KT 10SM CLR 07/M01 A3029 RMK AO2 SLP257 T00671006
KMAE 250553Z AUTO 30006KT 10SM CLR 08/M02 A3028 RMK AO2 SLP254 T00781017 10150 20072 53003
KMAE 250453Z AUTO 36005KT 10SM CLR 09/M02 A3028 RMK AO2 SLP252 T00891022
KMAE 250353Z AUTO 31004KT 10SM OVC075 11/M03 A3027 RMK AO2 SLP252 T01111028
KMAE 250253Z AUTO 35005KT 10SM BKN075 11/M03 A3027 RMK AO2 SLP252 T01111033 56006
KMAE 250153Z AUTO 35008KT 10SM FEW070 12/M06 A3028 RMK AO2 SLP253 T01221056
KMAE 250053Z AUTO 32009KT 10SM CLR 14/M06 A3028 RMK AO2 SLP254 T01441056
KMAE 242353Z AUTO 30010KT 10SM CLR 15/M06 A3029 RMK AO2 SLP258 T01501061 10156 20078 56025
KMAE 242253Z AUTO 30005KT 10SM CLR 15/M09 A3031 RMK AO2 SLP263 T01501089
KMAE 242153Z AUTO 29007KT 10SM CLR 14/M09 A3033 RMK AO2 SLP271 T01441089
KMAE 242053Z AUTO 00000KT 10SM CLR 13/M06 A3037 RMK AO2 SLP283 T01331056 58022
KMAE 241953Z AUTO 00000KT 10SM CLR 11/M05 A3040 RMK AO2 SLP294 T01111050
KMAE 241853Z AUTO 00000KT 10SM CLR 10/M04 A3043 RMK AO2 SLP304 T01001039
KMAE 241753Z AUTO 15005KT 10SM CLR 08/M03 A3043 RMK AO2 SLP306 T00781028 10083 21022 50005
KMAE 241653Z AUTO 11006KT 10SM CLR 05/M03 A3044 RMK AO2 SLP310 T00501028
KMAE 241553Z AUTO 11005KT 10SM CLR 02/M03 A3044 RMK AO2 SLP307 T00221028
KMAE 241453Z AUTO 09005KT 10SM CLR M02/M06 A3042 RMK AO2 SLP301 T10171056 53002
KMAE 241353Z AUTO 09004KT 10SM CLR M01/M05 A3042 RMK AO2 SLP300 T10061050
KMAE 241253Z AUTO 10004KT 10SM CLR M02/M06 A3041 RMK AO2 SLP300 T10171056
KMAE 241153Z AUTO 07004KT 10SM CLR M01/M05 A3041 RMK AO2 SLP300 T10111050 10033 21011 51003
KMAE 241053Z AUTO 07004KT 10SM CLR M01/M05 A3041 RMK AO2 SLP299 T10061050
KMAE 240953Z AUTO 07004KT 10SM CLR 00/M05 A3041 RMK AO2 SLP298 T00001050
KMAE 240853Z AUTO 00000KT 10SM CLR 01/M04 A3041 RMK AO2 SLP297 T00111044 51010
KMAE 240753Z AUTO 15004KT 10SM CLR 01/M04 A3040 RMK AO2 SLP294 T00111044 401221006
KMAE 240653Z AUTO 30005KT 10SM CLR 03/M04 A3039 RMK AO2 SLP292 T00281044
KMAE 240553Z AUTO 24004KT 10SM CLR 03/M04 A3038 RMK AO2 SLP287 T00281044 10117 20028 51009
KMAE 240453Z AUTO 28003KT 10SM CLR 05/M06 A3037 RMK AO2 SLP286 T00501056
KMAE 240353Z AUTO 31005KT 10SM CLR 07/M06 A3036 RMK AO2 SLP281 T00671061